Time;durP1;ratioP1;P1;durP2;ratioP2;P2;SDS_P1;SDS_P2;PMS_P1;PMS_P2;Temp;Humidity;BMP_temperature;BMP_pressure;BME280_temperature;BME280_humidity;BME280_pressure;Samples;Min_cycle;Max_cycle;Signal;HPM_P1;HPM_P2
2022/07/09 00:00:21;;;;;;;3.40;2.90;;;16.00;99.90;;;;;;5095367;28;20443;-79
2022/07/09 00:02:48;;;;;;;3.90;3.10;;;15.90;99.90;;;;;;5096075;28;20447;-78
2022/07/09 00:05:15;;;;;;;5.70;3.00;;;16.00;99.90;;;;;;5094893;28;20994;-78
2022/07/09 00:07:42;;;;;;;4.00;2.93;;;16.00;99.90;;;;;;5095109;28;20447;-77
2022/07/09 00:10:10;;;;;;;5.57;3.20;;;15.90;99.90;;;;;;5094851;28;20444;-77
2022/07/09 00:12:36;;;;;;;5.67;3.30;;;15.90;99.90;;;;;;5094975;28;20444;-78
2022/07/09 00:15:05;;;;;;;4.30;3.00;;;15.80;99.90;;;;;;5095705;28;20463;-77
2022/07/09 00:17:32;;;;;;;6.03;2.80;;;15.70;99.90;;;;;;5096193;28;20444;-77
2022/07/09 00:20:01;;;;;;;5.87;3.40;;;15.90;99.90;;;;;;5095651;28;20485;-77
2022/07/09 00:22:28;;;;;;;5.70;3.27;;;15.80;99.90;;;;;;5096133;28;20528;-77
2022/07/09 00:24:55;;;;;;;5.10;2.97;;;15.90;99.90;;;;;;5094948;28;20990;-77
2022/07/09 00:27:21;;;;;;;3.47;3.17;;;15.90;99.90;;;;;;5094451;28;20455;-77
2022/07/09 00:29:48;;;;;;;8.40;4.03;;;15.90;99.90;;;;;;5094573;28;20447;-78
2022/07/09 00:32:18;;;;;;;3.30;3.10;;;15.80;99.90;;;;;;5094512;28;20509;-77
2022/07/09 00:34:45;;;;;;;3.13;2.83;;;15.70;99.90;;;;;;5094572;28;20467;-78
2022/07/09 00:37:12;;;;;;;3.40;2.77;;;15.80;99.90;;;;;;5094171;28;20523;-78
2022/07/09 00:39:39;;;;;;;8.07;3.10;;;15.80;99.90;;;;;;5094116;28;20579;-77
2022/07/09 00:42:07;;;;;;;2.90;2.70;;;15.70;99.90;;;;;;5094127;28;20919;-77
2022/07/09 00:44:34;;;;;;;6.43;3.80;;;15.80;99.90;;;;;;5093918;28;20481;-77
2022/07/09 00:47:01;;;;;;;5.07;3.50;;;15.70;99.90;;;;;;5094666;28;20526;-77
2022/07/09 00:49:30;;;;;;;7.50;4.37;;;15.70;99.90;;;;;;5094507;28;20444;-78
2022/07/09 00:51:57;;;;;;;6.60;3.30;;;15.60;99.90;;;;;;5094543;28;20455;-78
2022/07/09 00:54:25;;;;;;;5.20;3.83;;;15.60;99.90;;;;;;5093379;28;21096;-76
2022/07/09 00:56:53;;;;;;;5.53;4.17;;;15.60;99.90;;;;;;5094075;28;20455;-76
2022/07/09 00:59:20;;;;;;;8.00;3.40;;;15.60;99.90;;;;;;5093535;28;20457;-77
2022/07/09 01:01:47;;;;;;;5.93;3.50;;;15.60;99.90;;;;;;5093587;28;20205;-77
2022/07/09 01:04:14;;;;;;;7.53;3.93;;;15.50;99.90;;;;;;5095388;28;20460;-78
2022/07/09 01:06:42;;;;;;;7.43;3.00;;;15.50;99.90;;;;;;5096282;28;20463;-78
2022/07/09 01:09:10;;;;;;;7.83;5.37;;;15.30;99.90;;;;;;5096381;28;20815;-78
2022/07/09 01:11:37;;;;;;;9.50;4.07;;;15.30;99.90;;;;;;5094823;28;20790;-78
2022/07/09 01:14:04;;;;;;;8.43;4.03;;;15.20;99.90;;;;;;5094865;28;20475;-78
2022/07/09 01:16:34;;;;;;;9.70;4.33;;;15.10;99.90;;;;;;5094927;28;20490;-78
2022/07/09 01:19:01;;;;;;;5.93;3.43;;;15.10;99.90;;;;;;5094465;28;21001;-78
2022/07/09 01:21:29;;;;;;;10.00;3.87;;;15.20;99.90;;;;;;5094707;28;20448;-78
2022/07/09 01:23:57;;;;;;;18.37;11.90;;;15.00;99.90;;;;;;5094668;28;20475;-78
2022/07/09 01:26:24;;;;;;;8.90;3.57;;;14.90;99.90;;;;;;5093999;28;20476;-77
2022/07/09 01:28:51;;;;;;;12.60;7.83;;;15.00;99.90;;;;;;5093116;28;20447;-77
2022/07/09 01:31:18;;;;;;;7.50;3.37;;;15.20;99.90;;;;;;5093644;28;20795;-77
2022/07/09 01:33:45;;;;;;;9.10;4.10;;;15.20;99.90;;;;;;5093441;28;20839;-77
2022/07/09 01:36:12;;;;;;;5.07;2.83;;;15.10;99.90;;;;;;5093802;28;20473;-77
2022/07/09 01:38:40;;;;;;;11.15;7.18;;;15.00;99.90;;;;;;5092350;28;20444;-77
2022/07/09 01:41:06;;;;;;;9.70;6.83;;;15.00;99.90;;;;;;5093051;28;20213;-77
2022/07/09 01:43:34;;;;;;;5.33;3.37;;;15.10;99.90;;;;;;5092966;28;20479;-77
2022/07/09 01:46:01;;;;;;;5.53;3.30;;;15.00;99.90;;;;;;5092786;28;20454;-78
2022/07/09 01:48:28;;;;;;;13.70;4.30;;;14.90;99.90;;;;;;5093232;28;20458;-77
2022/07/09 01:50:55;;;;;;;9.03;3.07;;;14.80;99.90;;;;;;5093218;28;20619;-77
2022/07/09 01:53:22;;;;;;;7.43;3.70;;;14.70;99.90;;;;;;5093138;28;20475;-77
2022/07/09 01:55:50;;;;;;;12.23;4.10;;;14.70;99.90;;;;;;5093207;28;20444;-77
2022/07/09 01:58:16;;;;;;;3.47;3.10;;;14.70;99.90;;;;;;5092966;28;20447;-77
2022/07/09 02:00:44;;;;;;;6.27;3.43;;;14.60;99.90;;;;;;5093877;28;20448;-77
2022/07/09 02:03:11;;;;;;;7.30;3.33;;;14.90;99.90;;;;;;5093356;28;20447;-77
2022/07/09 02:05:37;;;;;;;4.20;3.50;;;14.60;99.90;;;;;;5093307;28;20439;-77
2022/07/09 02:08:04;;;;;;;3.50;3.20;;;14.70;99.90;;;;;;5094076;28;20444;-77
2022/07/09 02:10:31;;;;;;;11.07;4.53;;;14.60;99.90;;;;;;5092868;28;20440;-77
2022/07/09 02:12:59;;;;;;;8.93;3.80;;;14.50;99.90;;;;;;5092683;28;20496;-77
2022/07/09 02:15:26;;;;;;;7.43;4.53;;;14.40;99.90;;;;;;5092401;28;20440;-77
2022/07/09 02:17:52;;;;;;;7.30;3.93;;;14.40;99.90;;;;;;5092577;28;20817;-77
2022/07/09 02:20:20;;;;;;;6.23;4.10;;;14.40;99.90;;;;;;5092055;28;20490;-77
2022/07/09 02:22:47;;;;;;;6.83;3.60;;;14.40;99.90;;;;;;5092560;28;20511;-77
2022/07/09 02:25:14;;;;;;;5.93;3.60;;;14.40;99.90;;;;;;5092500;28;20799;-77
2022/07/09 02:27:40;;;;;;;11.13;4.43;;;14.20;99.90;;;;;;5092636;28;20455;-77
2022/07/09 02:30:09;;;;;;;4.67;4.00;;;14.40;99.90;;;;;;5092284;28;20452;-77
2022/07/09 02:32:38;;;;;;;11.40;5.17;;;14.40;99.90;;;;;;5092719;28;20824;-77
2022/07/09 02:35:05;;;;;;;13.00;4.23;;;14.30;99.90;;;;;;5092020;28;20483;-77
2022/07/09 02:37:33;;;;;;;8.10;4.50;;;14.10;99.90;;;;;;5092130;28;20554;-77
2022/07/09 02:40:00;;;;;;;6.90;3.93;;;14.20;99.90;;;;;;5092176;28;20485;-77
2022/07/09 02:42:27;;;;;;;16.23;7.27;;;14.00;99.90;;;;;;5092311;28;20447;-77
2022/07/09 02:44:53;;;;;;;11.37;5.43;;;14.10;99.90;;;;;;5091942;28;20460;-77
2022/07/09 02:47:22;;;;;;;9.77;5.37;;;14.10;99.90;;;;;;5092018;28;20455;-77
2022/07/09 02:49:48;;;;;;;9.67;5.73;;;14.00;99.90;;;;;;5092289;28;20437;-77
2022/07/09 02:52:15;;;;;;;7.27;6.07;;;14.10;99.90;;;;;;5092238;28;20451;-77
2022/07/09 02:54:42;;;;;;;12.30;5.43;;;14.20;99.90;;;;;;5092863;28;20475;-77
2022/07/09 02:57:09;;;;;;;10.03;5.97;;;14.20;99.90;;;;;;5092333;28;20450;-77
2022/07/09 02:59:36;;;;;;;7.80;5.33;;;14.30;99.90;;;;;;5091936;28;20526;-77
2022/07/09 03:02:02;;;;;;;11.30;4.57;;;14.20;99.90;;;;;;5093164;28;20444;-77
2022/07/09 03:04:31;;;;;;;6.90;3.77;;;14.10;99.90;;;;;;5092138;28;20460;-76
2022/07/09 03:06:57;;;;;;;10.87;5.10;;;14.20;99.90;;;;;;5092058;28;20443;-76
2022/07/09 03:09:24;;;;;;;4.90;4.40;;;14.20;99.90;;;;;;5092008;28;20859;-76
2022/07/09 03:11:51;;;;;;;6.80;4.50;;;14.30;99.90;;;;;;5092248;28;20450;-76
2022/07/09 03:14:17;;;;;;;7.23;4.50;;;14.30;99.90;;;;;;5091976;28;20505;-76
2022/07/09 03:16:44;;;;;;;5.40;4.90;;;14.40;99.90;;;;;;5093100;28;20825;-76
2022/07/09 03:19:11;;;;;;;6.07;4.40;;;14.40;99.90;;;;;;5095635;28;20821;-76
2022/07/09 03:21:39;;;;;;;8.60;4.07;;;14.30;99.90;;;;;;5096007;28;20458;-76
2022/07/09 03:24:08;;;;;;;4.83;4.30;;;14.10;99.90;;;;;;5095851;28;20843;-76
2022/07/09 03:26:34;;;;;;;8.97;5.10;;;14.20;99.90;;;;;;5096327;28;20470;-76
2022/07/09 03:29:01;;;;;;;6.83;4.03;;;14.30;99.90;;;;;;5096680;28;20783;-76
2022/07/09 03:31:28;;;;;;;4.53;3.93;;;14.20;99.90;;;;;;5095950;28;20522;-76
2022/07/09 03:33:55;;;;;;;9.40;5.73;;;14.30;99.90;;;;;;5095670;28;20471;-76
2022/07/09 03:36:21;;;;;;;4.30;3.90;;;14.30;99.90;;;;;;5095661;28;20466;-76
2022/07/09 03:38:49;;;;;;;10.63;4.77;;;14.40;99.90;;;;;;5095496;28;20448;-77
2022/07/09 03:41:16;;;;;;;16.03;8.50;;;14.30;99.90;;;;;;5096022;28;20521;-76
2022/07/09 03:43:43;;;;;;;8.10;5.37;;;14.20;99.90;;;;;;5095296;28;20586;-76
2022/07/09 03:46:09;;;;;;;6.73;4.40;;;14.40;99.90;;;;;;5095527;28;20440;-76
2022/07/09 03:48:36;;;;;;;4.43;4.13;;;14.40;99.90;;;;;;5095536;28;20509;-77
2022/07/09 03:51:03;;;;;;;7.57;6.77;;;14.40;99.90;;;;;;5095409;28;20478;-76
2022/07/09 03:53:30;;;;;;;5.63;4.37;;;14.50;99.90;;;;;;5095172;28;20490;-76
2022/07/09 03:55:58;;;;;;;4.00;3.70;;;14.40;99.90;;;;;;5095481;28;20440;-76
2022/07/09 03:58:24;;;;;;;6.40;4.33;;;14.50;99.90;;;;;;5094845;28;20953;-76
2022/07/09 04:00:52;;;;;;;8.17;4.83;;;14.50;99.90;;;;;;5095421;28;20486;-76
2022/07/09 04:03:19;;;;;;;7.80;5.53;;;14.40;99.90;;;;;;5094987;28;20468;-76
2022/07/09 04:05:46;;;;;;;10.93;8.43;;;14.50;99.90;;;;;;5095225;28;20455;-77
2022/07/09 04:08:12;;;;;;;14.47;6.87;;;14.50;99.90;;;;;;5094683;28;20447;-76
2022/07/09 04:10:39;;;;;;;6.47;4.33;;;14.60;99.90;;;;;;5095166;28;20439;-76
2022/07/09 04:13:07;;;;;;;4.47;3.80;;;14.80;99.90;;;;;;5094554;28;20479;-77
2022/07/09 04:15:34;;;;;;;4.40;3.87;;;14.60;99.90;;;;;;5094954;28;20539;-77
2022/07/09 04:18:01;;;;;;;6.15;3.20;;;14.70;99.90;;;;;;5093549;28;20440;-76
2022/07/09 04:20:27;;;;;;;6.40;4.23;;;14.50;99.90;;;;;;5094712;28;20583;-76
2022/07/09 04:22:54;;;;;;;4.50;3.67;;;14.60;99.90;;;;;;5094763;28;20444;-76
2022/07/09 04:25:21;;;;;;;7.63;4.77;;;14.60;99.90;;;;;;5094707;28;20436;-77
2022/07/09 04:27:48;;;;;;;5.37;4.30;;;14.50;99.90;;;;;;5094737;28;20443;-77
2022/07/09 04:30:16;;;;;;;7.73;4.60;;;14.60;99.90;;;;;;5095028;28;20479;-77
2022/07/09 04:32:43;;;;;;;5.03;3.53;;;14.60;99.90;;;;;;5096592;28;20444;-76
2022/07/09 04:35:10;;;;;;;12.10;5.70;;;14.60;99.90;;;;;;5094935;28;20463;-77
2022/07/09 04:37:36;;;;;;;4.00;3.60;;;14.70;99.90;;;;;;5095702;28;20447;-78
2022/07/09 04:40:04;;;;;;;5.50;4.37;;;14.80;99.90;;;;;;5094372;28;20483;-77
2022/07/09 04:42:31;;;;;;;11.67;7.97;;;14.80;99.90;;;;;;5095594;28;20460;-77
2022/07/09 04:44:58;;;;;;;7.43;5.13;;;14.90;99.90;;;;;;5095542;28;20475;-77
2022/07/09 04:47:26;;;;;;;7.93;6.00;;;14.60;99.90;;;;;;5095618;28;20471;-77
2022/07/09 04:49:53;;;;;;;4.17;3.77;;;14.90;99.90;;;;;;5097921;28;20505;-77
2022/07/09 04:52:20;;;;;;;5.30;3.60;;;14.80;99.90;;;;;;5097709;28;20443;-78
2022/07/09 04:54:47;;;;;;;11.27;6.47;;;14.90;99.90;;;;;;5099172;28;20537;-77
2022/07/09 04:57:14;;;;;;;4.83;3.57;;;14.90;99.90;;;;;;5096533;28;20448;-77
2022/07/09 04:59:41;;;;;;;10.93;6.10;;;14.90;99.90;;;;;;5096840;28;20476;-77
2022/07/09 05:02:07;;;;;;;8.97;4.43;;;15.00;99.90;;;;;;5097036;28;20440;-77
2022/07/09 05:04:36;;;;;;;6.67;3.90;;;14.80;99.90;;;;;;5095846;28;20517;-78
2022/07/09 05:07:02;;;;;;;4.67;3.30;;;14.80;99.90;;;;;;5095122;28;20455;-77
2022/07/09 05:09:29;;;;;;;9.60;3.17;;;14.90;99.90;;;;;;5094716;28;21024;-77
2022/07/09 05:11:56;;;;;;;7.80;3.33;;;15.00;99.90;;;;;;5093969;28;20440;-76
2022/07/09 05:14:23;;;;;;;3.13;2.83;;;15.10;99.90;;;;;;5094045;28;20978;-77
2022/07/09 05:16:49;;;;;;;6.30;3.67;;;15.00;99.90;;;;;;5094816;28;20451;-77
2022/07/09 05:19:16;;;;;;;7.40;4.00;;;14.90;99.90;;;;;;5093302;28;20455;-77
2022/07/09 05:21:44;;;;;;;6.10;4.73;;;15.10;99.90;;;;;;5095089;28;20970;-77
2022/07/09 05:24:11;;;;;;;8.10;4.10;;;15.20;99.90;;;;;;5119160;22;20498;-78
2022/07/09 05:26:38;;;;;;;5.53;4.17;;;15.20;99.90;;;;;;5098680;28;20447;-78
2022/07/09 05:29:05;;;;;;;6.80;4.43;;;15.30;99.90;;;;;;5099250;28;20446;-78
2022/07/09 05:31:31;;;;;;;6.27;3.33;;;15.30;99.90;;;;;;5102375;28;20432;-79
2022/07/09 05:34:00;;;;;;;7.60;4.00;;;15.20;99.90;;;;;;5095499;28;20463;-77
2022/07/09 05:36:29;;;;;;;6.67;3.40;;;15.20;99.90;;;;;;5095343;28;20480;-77
2022/07/09 05:38:58;;;;;;;4.77;3.90;;;15.30;99.90;;;;;;5097462;28;20800;-79
2022/07/09 05:41:25;;;;;;;3.53;3.27;;;15.30;99.90;;;;;;5097584;28;20805;-79
2022/07/09 05:43:52;;;;;;;8.67;3.97;;;15.40;99.90;;;;;;5097499;28;20914;-79
2022/07/09 05:46:19;;;;;;;3.70;3.40;;;15.40;99.90;;;;;;5097515;28;20865;-79
2022/07/09 05:48:46;;;;;;;5.97;3.50;;;15.50;99.90;;;;;;5097790;28;20439;-79
2022/07/09 05:51:12;;;;;;;4.50;4.03;;;15.50;99.90;;;;;;5097771;28;20443;-79
2022/07/09 05:53:39;;;;;;;11.17;4.57;;;15.60;99.90;;;;;;5096572;28;20464;-78
2022/07/09 05:56:08;;;;;;;9.00;3.60;;;15.70;99.90;;;;;;5098030;28;20462;-79
2022/07/09 05:58:35;;;;;;;5.67;3.60;;;15.70;99.90;;;;;;5103042;28;20436;-79
2022/07/09 06:01:02;;;;;;;5.47;3.83;;;15.80;99.90;;;;;;5101974;28;20503;-78
2022/07/09 06:03:29;;;;;;;5.30;4.40;;;16.10;99.90;;;;;;5106311;28;20444;-78
2022/07/09 06:05:56;;;;;;;7.03;4.10;;;15.90;99.90;;;;;;5097901;28;20440;-78
2022/07/09 06:08:23;;;;;;;6.30;3.30;;;15.80;99.90;;;;;;5106442;28;20446;-77
2022/07/09 06:10:49;;;;;;;5.40;3.60;;;15.90;99.90;;;;;;5111819;28;20523;-77
2022/07/09 06:13:18;;;;;;;4.67;4.03;;;15.90;99.90;;;;;;5112366;28;20446;-77
2022/07/09 06:15:44;;;;;;;4.83;3.80;;;15.90;99.90;;;;;;5105518;28;20436;-78
2022/07/09 06:18:14;;;;;;;4.50;3.80;;;16.00;99.90;;;;;;5098714;28;20451;-79
2022/07/09 06:20:40;;;;;;;5.83;3.83;;;16.10;99.90;;;;;;5096304;28;20478;-79
2022/07/09 06:23:07;;;;;;;6.90;3.77;;;16.20;99.90;;;;;;5097201;28;20483;-79
2022/07/09 06:25:34;;;;;;;5.93;4.37;;;16.20;99.90;;;;;;5095336;28;20475;-78
2022/07/09 06:28:01;;;;;;;4.23;3.93;;;16.20;99.90;;;;;;5096251;28;20492;-78
2022/07/09 06:30:29;;;;;;;7.43;3.83;;;16.20;99.90;;;;;;5096083;28;20455;-78
2022/07/09 06:32:56;;;;;;;10.40;4.00;;;16.40;99.90;;;;;;5096691;28;20535;-78
2022/07/09 06:35:23;;;;;;;5.00;4.20;;;16.40;99.90;;;;;;5095815;28;20471;-78
2022/07/09 06:37:50;;;;;;;12.60;3.57;;;16.50;99.90;;;;;;5097186;28;20475;-78
2022/07/09 06:40:17;;;;;;;4.40;3.97;;;16.50;99.90;;;;;;5103154;28;20464;-78
2022/07/09 06:42:44;;;;;;;7.20;4.20;;;16.40;99.90;;;;;;5107543;28;20455;-78
2022/07/09 06:45:11;;;;;;;6.97;2.70;;;16.40;99.90;;;;;;5111508;28;20447;-76
2022/07/09 06:47:39;;;;;;;5.73;3.70;;;16.30;99.90;;;;;;5111039;28;20436;-77
2022/07/09 06:50:06;;;;;;;4.53;3.53;;;16.40;99.90;;;;;;5111926;28;20447;-77
2022/07/09 06:52:33;;;;;;;5.20;3.70;;;16.40;99.90;;;;;;5113708;28;20455;-77
2022/07/09 06:55:00;;;;;;;6.33;4.10;;;16.50;99.90;;;;;;5108949;28;20460;-78
2022/07/09 06:57:26;;;;;;;5.83;3.10;;;16.60;99.90;;;;;;5104660;28;20455;-78
2022/07/09 06:59:53;;;;;;;3.20;2.90;;;16.60;99.90;;;;;;5102668;28;20474;-80
2022/07/09 07:02:20;;;;;;;6.67;3.07;;;16.60;99.90;;;;;;5100778;28;20446;-78
2022/07/09 07:04:48;;;;;;;3.83;3.50;;;16.60;99.90;;;;;;5102174;28;20986;-78
2022/07/09 07:07:15;;;;;;;4.20;3.20;;;16.70;99.90;;;;;;5100825;28;20814;-79
2022/07/09 07:09:41;;;;;;;5.93;3.43;;;16.70;99.90;;;;;;5100244;28;20467;-79
2022/07/09 07:12:08;;;;;;;4.60;3.00;;;16.80;99.90;;;;;;5100294;28;20797;-77
2022/07/09 07:14:36;;;;;;;3.90;3.27;;;16.80;99.90;;;;;;5100020;28;20451;-78
2022/07/09 07:17:03;;;;;;;6.53;3.60;;;17.00;99.90;;;;;;5100934;28;20450;-78
2022/07/09 07:19:30;;;;;;;9.93;3.30;;;16.90;99.90;;;;;;5100174;28;20457;-77
2022/07/09 07:21:58;;;;;;;4.40;3.10;;;16.80;99.90;;;;;;5102922;28;20852;-79
2022/07/09 07:24:25;;;;;;;3.53;2.90;;;17.00;99.90;;;;;;5101001;28;20474;-79
2022/07/09 07:26:51;;;;;;;5.80;3.67;;;17.10;99.90;;;;;;5099193;28;20962;-78
2022/07/09 07:29:18;;;;;;;5.67;3.17;;;17.00;99.90;;;;;;5101987;28;20444;-78
2022/07/09 07:31:45;;;;;;;5.70;3.20;;;17.10;99.90;;;;;;5100935;28;20890;-78
2022/07/09 07:34:12;;;;;;;4.00;3.40;;;17.20;99.90;;;;;;5102368;28;20891;-78
2022/07/09 07:36:38;;;;;;;3.83;3.27;;;17.20;99.90;;;;;;5103539;28;20450;-78
2022/07/09 07:39:06;;;;;;;7.73;2.43;;;17.30;99.90;;;;;;5102632;28;20468;-81
2022/07/09 07:41:33;;;;;;;6.50;3.07;;;17.20;99.90;;;;;;5097995;28;21044;-79
2022/07/09 07:44:00;;;;;;;5.63;3.53;;;17.30;99.90;;;;;;5098817;28;20468;-78
2022/07/09 07:46:27;;;;;;;5.80;3.00;;;17.40;99.90;;;;;;5102639;28;20467;-77
2022/07/09 07:48:53;;;;;;;6.63;3.30;;;17.50;99.90;;;;;;5109495;28;20436;-76
2022/07/09 07:51:20;;;;;;;3.63;2.60;;;17.60;99.90;;;;;;5101030;28;20451;-78
2022/07/09 07:53:47;;;;;;;3.90;2.53;;;17.60;99.90;;;;;;5098763;28;20468;-76
2022/07/09 07:56:15;;;;;;;2.67;2.47;;;17.60;99.90;;;;;;5097462;28;20447;-78
2022/07/09 07:58:42;;;;;;;2.60;2.10;;;17.50;99.90;;;;;;5097993;28;20497;-78
2022/07/09 08:01:09;;;;;;;5.37;2.97;;;17.50;99.90;;;;;;5095638;28;20483;-79
2022/07/09 08:03:35;;;;;;;6.20;2.73;;;17.50;99.90;;;;;;5094666;28;20907;-77
2022/07/09 08:06:02;;;;;;;3.33;2.77;;;17.50;99.90;;;;;;5096659;28;20863;-77
2022/07/09 08:08:29;;;;;;;3.93;2.73;;;17.50;99.90;;;;;;5096996;28;20447;-78
2022/07/09 08:10:56;;;;;;;3.70;3.10;;;17.50;99.90;;;;;;5096990;28;20542;-79
2022/07/09 08:13:24;;;;;;;5.67;4.10;;;17.50;99.90;;;;;;5096809;28;20440;-77
2022/07/09 08:15:51;;;;;;;3.40;3.10;;;17.50;99.90;;;;;;5102679;28;20450;-77
2022/07/09 08:18:17;;;;;;;3.10;2.80;;;17.50;99.90;;;;;;5099349;28;20443;-77
2022/07/09 08:20:44;;;;;;;6.10;2.83;;;17.40;99.90;;;;;;5098748;28;20471;-78
2022/07/09 08:23:13;;;;;;;4.43;2.60;;;17.30;99.90;;;;;;5097547;28;20490;-78
2022/07/09 08:25:40;;;;;;;5.40;3.07;;;17.30;99.90;;;;;;5097357;28;20456;-77
2022/07/09 08:28:07;;;;;;;5.33;3.27;;;17.30;99.90;;;;;;5096713;28;20451;-79
2022/07/09 08:30:35;;;;;;;6.83;3.40;;;17.40;99.90;;;;;;5098319;28;20448;-78
2022/07/09 08:33:02;;;;;;;4.50;2.70;;;17.50;99.90;;;;;;5096507;28;20444;-77
2022/07/09 08:35:28;;;;;;;3.70;3.13;;;17.50;99.90;;;;;;5095271;28;20521;-76
2022/07/09 08:37:56;;;;;;;5.03;3.40;;;17.70;99.90;;;;;;5096063;28;20452;-76
2022/07/09 08:40:23;;;;;;;4.47;3.47;;;17.80;99.90;;;;;;5097711;28;20448;-77
2022/07/09 08:42:50;;;;;;;4.10;3.70;;;17.80;99.90;;;;;;5100813;28;20448;-78
2022/07/09 08:45:18;;;;;;;6.20;3.63;;;17.90;99.90;;;;;;5103989;28;21001;-78
2022/07/09 08:47:47;;;;;;;6.07;3.20;;;18.00;99.90;;;;;;5102061;28;20444;-79
2022/07/09 08:50:14;;;;;;;4.37;3.20;;;17.80;99.90;;;;;;5095399;28;20467;-78
2022/07/09 08:52:42;;;;;;;4.87;2.80;;;17.90;99.90;;;;;;5095780;28;20447;-77
2022/07/09 08:55:10;;;;;;;3.50;3.20;;;18.00;99.90;;;;;;5095066;28;20467;-77
2022/07/09 08:57:37;;;;;;;5.53;3.57;;;18.00;99.90;;;;;;5096183;28;20447;-77
2022/07/09 09:00:06;;;;;;;4.80;3.33;;;18.10;99.90;;;;;;5095515;28;20812;-77
2022/07/09 09:02:37;;;;;;;4.17;2.93;;;18.10;99.90;;;;;;5094687;28;20475;-77
2022/07/09 09:05:11;;;;;;;5.40;3.60;;;18.20;99.90;;;;;;5095035;28;20463;-77
2022/07/09 09:07:38;;;;;;;5.23;3.50;;;18.30;99.90;;;;;;5095890;28;20466;-77
2022/07/09 09:10:06;;;;;;;6.73;3.00;;;18.50;99.90;;;;;;5095494;28;20440;-79
2022/07/09 09:12:33;;;;;;;4.77;4.00;;;18.50;99.90;;;;;;5102284;28;20511;-80
2022/07/09 09:15:00;;;;;;;3.17;2.97;;;18.30;99.90;;;;;;5101410;28;20466;-79
2022/07/09 09:17:27;;;;;;;3.97;3.00;;;18.20;99.90;;;;;;5102331;28;20440;-81
2022/07/09 09:19:53;;;;;;;6.20;3.07;;;18.00;99.90;;;;;;5103677;28;20451;-82
2022/07/09 09:22:22;;;;;;;3.17;2.97;;;18.00;99.90;;;;;;5102203;28;20483;-81
2022/07/09 09:24:53;;;;;;;4.53;3.27;;;17.90;99.90;;;;;;5102966;28;20563;-82
2022/07/09 09:27:28;;;;;;;4.03;3.63;;;17.90;99.90;;;;;;5102909;28;20474;-80
2022/07/09 09:29:59;;;;;;;7.37;3.20;;;17.90;99.90;;;;;;5103415;28;20428;-82
2022/07/09 09:32:25;;;;;;;3.40;2.90;;;17.90;99.90;;;;;;5101875;28;20926;-79
2022/07/09 09:34:52;;;;;;;6.10;3.37;;;17.60;99.90;;;;;;5103972;28;20463;-82
2022/07/09 09:37:28;;;;;;;5.73;3.50;;;17.50;99.90;;;;;;5103740;28;20440;-80
2022/07/09 09:39:54;;;;;;;6.87;4.10;;;17.20;99.90;;;;;;5105720;28;20454;-78
2022/07/09 09:42:24;;;;;;;4.37;3.97;;;17.00;99.90;;;;;;5111300;28;20475;-79
2022/07/09 09:44:51;;;;;;;12.23;10.37;;;16.90;99.90;;;;;;5112744;28;20491;-81
2022/07/09 09:47:24;;;;;;;7.30;4.50;;;16.80;99.90;;;;;;5104840;28;20446;-81
2022/07/09 09:49:51;;;;;;;5.93;3.97;;;16.70;99.90;;;;;;5102279;28;20435;-81
2022/07/09 09:52:20;;;;;;;7.73;6.23;;;16.40;99.90;;;;;;5100461;28;20859;-82
2022/07/09 09:54:49;;;;;;;7.00;4.80;;;16.20;99.90;;;;;;5101861;28;20875;-81
2022/07/09 09:57:17;;;;;;;4.83;4.43;;;16.10;99.90;;;;;;5101677;28;20896;-81
2022/07/09 09:59:46;;;;;;;5.47;4.73;;;16.10;99.90;;;;;;5101252;28;20451;-82
2022/07/09 10:02:14;;;;;;;5.47;4.93;;;16.00;99.90;;;;;;5105512;28;20480;-80
2022/07/09 10:04:42;;;;;;;7.13;5.37;;;16.00;99.90;;;;;;5111507;28;21025;-81
2022/07/09 10:07:11;;;;;;;8.07;6.80;;;15.90;99.90;;;;;;5103105;28;20470;-82
2022/07/09 10:09:38;;;;;;;6.67;5.50;;;15.90;99.90;;;;;;5101644;28;20424;-82
2022/07/09 10:12:09;;;;;;;9.83;5.60;;;16.00;99.90;;;;;;5101772;28;20752;-82
2022/07/09 10:14:38;;;;;;;9.33;6.43;;;16.00;99.90;;;;;;5104694;28;20551;-81
2022/07/09 10:17:13;;;;;;;6.90;6.20;;;16.20;99.90;;;;;;5101837;28;20440;-82
2022/07/09 10:19:52;;;;;;;11.17;6.17;;;16.30;99.90;;;;;;5084617;28;20538;-81
2022/07/09 10:22:19;;;;;;;8.50;6.97;;;16.40;99.90;;;;;;5101358;28;20903;-81
2022/07/09 10:24:47;;;;;;;9.10;6.07;;;16.50;99.90;;;;;;5099565;28;20517;-82
2022/07/09 10:27:15;;;;;;;6.63;6.03;;;16.70;99.90;;;;;;5096204;28;20485;-81
2022/07/09 10:29:54;;;;;;;7.70;5.43;;;16.60;99.90;;;;;;5097123;28;20497;-82
2022/07/09 10:32:25;;;;;;;8.80;6.00;;;16.80;99.90;;;;;;5097586;28;20424;-82
2022/07/09 10:34:57;;;;;;;9.30;5.07;;;17.00;99.90;;;;;;5097111;28;20464;-82
2022/07/09 10:37:43;;;;;;;8.80;5.87;;;17.20;99.90;;;;;;5101228;28;20427;-79
2022/07/09 10:40:15;;;;;;;6.07;5.40;;;17.30;99.90;;;;;;5107628;28;20428;-80
2022/07/09 10:42:44;;;;;;;6.83;5.17;;;17.50;99.90;;;;;;5104951;28;20464;-81
2022/07/09 10:45:24;;;;;;;3.73;3.43;;;17.60;99.90;;;;;;5096864;28;20470;-81
2022/07/09 10:47:57;;;;;;;7.67;5.40;;;17.60;99.90;;;;;;5099030;28;20873;-81
2022/07/09 10:50:29;;;;;;;9.40;4.47;;;17.80;99.90;;;;;;5096771;28;20428;-80
2022/07/09 10:52:56;;;;;;;5.67;3.93;;;18.00;99.90;;;;;;5097817;28;20479;-80
2022/07/09 10:55:24;;;;;;;11.60;4.30;;;18.10;99.90;;;;;;5101751;28;20464;-80
2022/07/09 10:57:53;;;;;;;6.13;4.30;;;18.40;99.90;;;;;;5102546;28;20431;-81
2022/07/09 11:00:22;;;;;;;4.93;3.70;;;18.40;99.90;;;;;;5099863;28;20509;-81
2022/07/09 11:02:53;;;;;;;4.70;3.53;;;18.50;99.90;;;;;;5098983;28;20476;-81
2022/07/09 11:05:20;;;;;;;6.10;3.90;;;18.60;99.90;;;;;;5096735;28;20495;-81
2022/07/09 11:07:58;;;;;;;8.73;5.83;;;18.70;99.90;;;;;;5096057;28;20447;-81
2022/07/09 11:10:26;;;;;;;4.40;3.63;;;19.00;99.90;;;;;;5097696;28;20438;-81
2022/07/09 11:12:55;;;;;;;5.60;4.60;;;19.10;99.90;;;;;;5096157;28;20500;-81
2022/07/09 11:15:23;;;;;;;3.50;3.20;;;19.20;99.90;;;;;;5096175;28;20464;-79
2022/07/09 11:17:57;;;;;;;7.90;4.50;;;19.30;99.90;;;;;;5095657;28;20592;-81
2022/07/09 11:20:24;;;;;;;10.87;4.23;;;19.30;99.90;;;;;;5096936;28;20930;-81
2022/07/09 11:22:51;;;;;;;3.57;3.23;;;19.40;99.90;;;;;;5096799;28;20525;-81
2022/07/09 11:25:18;;;;;;;3.53;2.50;;;19.50;99.90;;;;;;5089773;22;20498;-79
2022/07/09 11:27:45;;;;;;;4.53;2.70;;;19.70;99.90;;;;;;5067175;28;20516;-77
2022/07/09 11:30:16;;;;;;;3.00;2.70;;;19.70;99.90;;;;;;5056988;28;20499;-79
2022/07/09 11:32:43;;;;;;;3.83;3.17;;;19.70;99.90;;;;;;5054241;28;20433;-79
2022/07/09 11:35:10;;;;;;;3.80;3.00;;;19.70;99.90;;;;;;5053603;28;20461;-78
2022/07/09 11:37:37;;;;;;;3.90;2.30;;;19.60;99.90;;;;;;5053690;28;20438;-82
2022/07/09 11:40:06;;;;;;;3.30;2.50;;;19.70;99.90;;;;;;5056865;28;20450;-78
2022/07/09 11:42:33;;;;;;;2.23;2.03;;;19.90;99.90;;;;;;5057654;28;20481;-80
2022/07/09 11:45:01;;;;;;;4.40;2.93;;;20.10;99.90;;;;;;5058196;28;20470;-80
2022/07/09 11:47:37;;;;;;;2.50;2.30;;;20.20;99.90;;;;;;5057503;28;20457;-78
2022/07/09 11:50:09;;;;;;;2.50;2.30;;;20.30;99.90;;;;;;5056621;28;20461;-78
2022/07/09 11:52:38;;;;;;;2.77;2.57;;;20.30;99.90;;;;;;5056399;28;20442;-77
2022/07/09 11:55:06;;;;;;;3.70;2.30;;;20.30;99.90;;;;;;5056608;28;20492;-77
2022/07/09 11:57:35;;;;;;;2.83;2.33;;;20.30;99.90;;;;;;5057321;28;20449;-81
2022/07/09 12:00:03;;;;;;;2.63;2.43;;;20.30;99.90;;;;;;5057180;28;20824;-78
2022/07/09 12:02:31;;;;;;;2.47;2.10;;;20.20;99.90;;;;;;5056376;28;21007;-78
2022/07/09 12:05:00;;;;;;;2.80;2.60;;;20.10;99.90;;;;;;5072897;28;20457;-77
2022/07/09 12:07:27;;;;;;;4.80;2.90;;;20.00;99.90;;;;;;5072037;28;20449;-77
2022/07/09 12:10:00;;;;;;;4.30;2.60;;;19.90;99.90;;;;;;5067197;28;20940;-79
2022/07/09 12:12:28;;;;;;;3.30;3.00;;;19.90;99.90;;;;;;5058158;28;20446;-79
2022/07/09 12:14:55;;;;;;;5.13;2.67;;;19.80;99.90;;;;;;5057749;28;20470;-83
2022/07/09 12:17:24;;;;;;;2.87;2.60;;;19.80;99.90;;;;;;5058382;28;20454;-79
2022/07/09 12:19:51;;;;;;;6.27;2.70;;;19.80;99.90;;;;;;5058374;28;20446;-78
2022/07/09 12:22:20;;;;;;;4.10;3.00;;;19.90;99.90;;;;;;5056216;28;20481;-79
2022/07/09 12:24:47;;;;;;;8.90;4.87;;;20.00;99.90;;;;;;5056912;28;21008;-80
2022/07/09 12:27:13;;;;;;;5.30;3.97;;;20.10;99.90;;;;;;5057403;28;20457;-79
2022/07/09 12:29:41;;;;;;;4.33;3.93;;;20.10;99.90;;;;;;5055480;28;20457;-77
2022/07/09 12:32:08;;;;;;;4.27;3.90;;;20.10;99.90;;;;;;5055925;28;20437;-79
2022/07/09 12:34:35;;;;;;;3.17;2.90;;;20.30;99.90;;;;;;5057024;28;20480;-82
2022/07/09 12:37:02;;;;;;;3.93;3.63;;;20.40;99.90;;;;;;5057994;28;20448;-81
2022/07/09 12:39:30;;;;;;;5.67;3.07;;;20.30;99.90;;;;;;5057601;28;20457;-80
2022/07/09 12:41:59;;;;;;;3.17;2.97;;;20.30;99.90;;;;;;5057446;28;20496;-81
2022/07/09 12:44:26;;;;;;;2.83;2.63;;;20.20;99.90;;;;;;5057987;28;20478;-81
2022/07/09 12:46:53;;;;;;;4.13;3.80;;;20.20;99.90;;;;;;5058564;28;20507;-80